createdAt,value
2017-11-20T00:01:39.812Z,5.00
2017-11-20T00:04:07.941Z,4.90
2017-11-20T00:06:37.590Z,4.90
2017-11-20T00:09:06.482Z,5.00
2017-11-20T00:11:34.612Z,4.90
2017-11-20T00:14:04.257Z,4.90
2017-11-20T00:16:32.406Z,4.90
2017-11-20T00:19:01.320Z,4.80
2017-11-20T00:21:29.481Z,4.80
2017-11-20T00:23:58.362Z,4.80
2017-11-20T00:26:27.260Z,4.80
2017-11-20T00:28:55.420Z,4.80
2017-11-20T00:31:23.530Z,4.80
2017-11-20T00:33:51.683Z,4.80
2017-11-20T00:36:20.581Z,4.70
2017-11-20T00:38:48.716Z,4.70
2017-11-20T00:41:16.843Z,4.50
2017-11-20T00:43:44.982Z,4.50
2017-11-20T00:46:13.893Z,4.60
2017-11-20T00:48:42.022Z,4.60
2017-11-20T00:51:10.917Z,4.70
2017-11-20T00:53:39.048Z,4.70
2017-11-20T00:56:07.166Z,4.60
2017-11-20T00:58:36.083Z,4.60
2017-11-20T01:01:04.207Z,4.60
2017-11-20T01:03:32.343Z,4.60
2017-11-20T01:06:00.476Z,4.60
2017-11-20T01:08:29.417Z,4.60
2017-11-20T01:10:57.529Z,4.60
2017-11-20T01:13:26.434Z,4.50
2017-11-20T01:15:55.332Z,4.50
2017-11-20T01:18:23.462Z,4.50
2017-11-20T01:20:51.616Z,4.50
2017-11-20T01:23:19.744Z,4.50
2017-11-20T01:25:48.651Z,4.50
2017-11-20T01:28:16.786Z,4.50
2017-11-20T01:30:45.001Z,4.50
2017-11-20T01:33:13.126Z,4.50
2017-11-20T01:35:42.764Z,4.40
2017-11-20T01:38:10.904Z,4.40
2017-11-20T01:40:39.129Z,4.40
2017-11-20T01:43:07.265Z,4.50
2017-11-20T01:45:36.173Z,4.50
2017-11-20T01:48:04.305Z,4.50
2017-11-20T01:50:32.432Z,4.50
2017-11-20T01:53:00.558Z,4.50
2017-11-20T01:55:29.465Z,4.50
2017-11-20T01:57:58.364Z,4.50
2017-11-20T02:00:27.265Z,4.60
2017-11-20T02:03:00.949Z,4.50
2017-11-20T02:05:29.857Z,4.60
2017-11-20T02:07:58.052Z,4.60
2017-11-20T02:10:26.172Z,4.60
2017-11-20T02:12:55.081Z,4.60
2017-11-20T02:15:23.965Z,4.60
2017-11-20T02:17:52.871Z,4.60
2017-11-20T02:20:21.047Z,4.60
2017-11-20T02:22:49.197Z,4.50
2017-11-20T02:25:17.320Z,4.50
2017-11-20T02:27:45.462Z,4.40
2017-11-20T02:30:13.612Z,4.50
2017-11-20T02:32:42.513Z,4.40
2017-11-20T02:35:11.394Z,4.50
2017-11-20T02:37:40.298Z,4.50
2017-11-20T02:40:08.440Z,4.40
2017-11-20T02:42:36.597Z,4.50
2017-11-20T02:45:04.727Z,4.50
2017-11-20T02:47:32.846Z,4.60
2017-11-20T02:50:01.755Z,4.60
2017-11-20T02:52:29.890Z,4.60
2017-11-20T02:54:58.042Z,4.50
2017-11-20T02:57:26.170Z,4.50
2017-11-20T02:59:55.065Z,4.60
2017-11-20T03:02:23.966Z,4.60
2017-11-20T03:04:52.867Z,4.60
2017-11-20T03:07:20.989Z,4.60
2017-11-20T03:09:49.134Z,4.50
2017-11-20T03:12:17.308Z,4.60
2017-11-20T03:14:45.486Z,4.60
2017-11-20T03:17:13.627Z,4.40
2017-11-20T03:19:42.526Z,4.40
2017-11-20T03:22:10.651Z,4.40
2017-11-20T03:24:38.801Z,4.40
2017-11-20T03:27:06.961Z,4.40
2017-11-20T03:29:35.077Z,4.40
2017-11-20T03:32:04.004Z,4.30
2017-11-20T03:34:32.138Z,4.30
2017-11-20T03:37:00.266Z,4.20
2017-11-20T03:39:28.419Z,4.30
2017-11-20T03:41:56.534Z,4.40
2017-11-20T03:44:24.686Z,4.40
2017-11-20T03:46:52.830Z,4.20
2017-11-20T03:49:20.969Z,4.10
2017-11-20T03:51:49.104Z,4.20
2017-11-20T03:54:17.243Z,4.10
2017-11-20T03:56:45.379Z,4.00
2017-11-20T03:59:13.502Z,4.10
2017-11-20T04:01:41.647Z,4.20
2017-11-20T04:04:10.547Z,4.30
2017-11-20T04:06:39.456Z,4.20
2017-11-20T04:09:07.583Z,4.20
2017-11-20T04:11:35.703Z,4.30
2017-11-20T04:14:03.848Z,4.20
2017-11-20T04:16:32.733Z,4.00
2017-11-20T04:19:01.664Z,4.00
2017-11-20T04:21:29.790Z,4.10
2017-11-20T04:23:58.702Z,4.00
2017-11-20T04:26:26.833Z,4.00
2017-11-20T04:28:54.975Z,3.90
2017-11-20T04:31:23.090Z,3.90
2017-11-20T04:33:51.981Z,3.90
2017-11-20T04:36:20.890Z,3.80
2017-11-20T04:38:49.784Z,4.00
2017-11-20T04:41:17.945Z,3.90
2017-11-20T04:43:46.838Z,4.00
2017-11-20T04:46:15.849Z,4.00
2017-11-20T04:48:43.998Z,4.00
2017-11-20T04:51:12.897Z,3.70
2017-11-20T04:53:41.791Z,3.70
2017-11-20T04:56:09.933Z,3.70
2017-11-20T04:58:38.066Z,3.70
2017-11-20T05:01:06.197Z,3.80
2017-11-20T05:03:35.085Z,3.70
2017-11-20T05:06:03.998Z,3.90
2017-11-20T05:08:32.129Z,3.90
2017-11-20T05:11:00.239Z,3.80
2017-11-20T05:13:28.385Z,4.00
2017-11-20T05:15:57.281Z,3.90
2017-11-20T05:18:26.182Z,3.80
2017-11-20T05:20:54.327Z,3.80
2017-11-20T05:23:22.469Z,3.90
2017-11-20T05:25:50.594Z,4.10
2017-11-20T05:28:19.608Z,4.10
2017-11-20T05:30:47.789Z,4.10
2017-11-20T05:33:15.905Z,4.10
2017-11-20T05:35:44.810Z,4.20
2017-11-20T05:38:13.784Z,4.10
2017-11-20T05:40:42.013Z,4.10
2017-11-20T05:43:10.250Z,4.10
2017-11-20T05:45:39.168Z,4.10
2017-11-20T05:48:07.366Z,4.10
2017-11-20T05:50:35.501Z,4.20
2017-11-20T05:53:04.413Z,4.20
2017-11-20T05:55:32.543Z,4.20
2017-11-20T05:58:01.434Z,4.20
2017-11-20T06:00:30.357Z,4.20
2017-11-20T06:02:58.655Z,4.20
2017-11-20T06:05:26.787Z,4.30
2017-11-20T06:07:54.981Z,4.30
2017-11-20T06:10:23.123Z,4.30
2017-11-20T06:12:52.066Z,4.30
2017-11-20T06:15:20.221Z,4.30
2017-11-20T06:17:48.461Z,4.30
2017-11-20T06:20:17.710Z,4.20
2017-11-20T06:22:45.882Z,4.10
2017-11-20T06:25:14.017Z,4.10
2017-11-20T06:27:42.927Z,4.00
2017-11-20T06:30:11.083Z,4.00
2017-11-20T06:32:40.040Z,4.00
2017-11-20T06:35:09.756Z,4.00
2017-11-20T06:37:37.980Z,4.00
2017-11-20T06:40:06.126Z,4.10
2017-11-20T06:42:35.029Z,4.10
2017-11-20T06:45:03.159Z,4.10
2017-11-20T06:47:31.324Z,4.10
2017-11-20T06:49:59.475Z,4.10
2017-11-20T06:52:28.365Z,4.10
2017-11-20T06:54:56.531Z,3.80
2017-11-20T06:57:24.657Z,3.90
2017-11-20T06:59:53.569Z,3.90
2017-11-20T07:02:21.691Z,3.90
2017-11-20T07:04:49.838Z,4.00
2017-11-20T07:07:17.973Z,3.90
2017-11-20T07:09:46.876Z,4.00
2017-11-20T07:12:15.025Z,3.90
2017-11-20T07:14:43.933Z,4.20
2017-11-20T07:17:12.074Z,4.10
2017-11-20T07:19:40.198Z,4.00
2017-11-20T07:22:08.377Z,4.10
2017-11-20T07:24:36.504Z,4.10
2017-11-20T07:27:04.801Z,4.00
2017-11-20T07:29:44.923Z,4.00
2017-11-20T07:32:13.853Z,4.00
2017-11-20T07:34:53.786Z,3.90
2017-11-20T07:37:33.841Z,3.90
2017-11-20T07:40:13.823Z,3.90
2017-11-20T07:42:41.988Z,4.00
2017-11-20T07:45:10.130Z,4.00
2017-11-20T07:47:39.048Z,4.00
2017-11-20T07:50:07.193Z,4.00
2017-11-20T07:52:35.343Z,4.00
2017-11-20T07:55:03.482Z,3.90
2017-11-20T07:57:31.659Z,4.00
2017-11-20T07:59:59.854Z,4.00
2017-11-20T08:02:27.990Z,4.00
2017-11-20T08:04:56.237Z,3.90
2017-11-20T08:07:24.363Z,4.10
2017-11-20T08:09:52.617Z,4.10
2017-11-20T08:12:20.735Z,4.20
2017-11-20T08:14:49.647Z,4.20
2017-11-20T08:17:17.827Z,4.10
2017-11-20T08:19:45.960Z,4.30
2017-11-20T08:22:14.129Z,4.10
2017-11-20T08:24:43.027Z,4.20
2017-11-20T08:27:11.206Z,4.20
2017-11-20T08:29:40.101Z,4.40
2017-11-20T08:32:09.014Z,4.50
2017-11-20T08:34:37.253Z,4.50
2017-11-20T08:37:06.165Z,4.50
2017-11-20T08:39:35.093Z,4.40
2017-11-20T08:42:03.222Z,4.40
2017-11-20T08:44:32.138Z,4.50
2017-11-20T08:47:00.280Z,4.50
2017-11-20T08:49:29.190Z,4.50
2017-11-20T08:51:57.314Z,4.50
2017-11-20T08:54:25.458Z,4.50
2017-11-20T08:56:53.815Z,4.50
2017-11-20T08:59:21.957Z,4.60
2017-11-20T09:01:50.950Z,4.80
2017-11-20T09:04:19.902Z,4.80
2017-11-20T09:06:48.130Z,4.80
2017-11-20T09:09:16.350Z,4.70
2017-11-20T09:11:44.465Z,4.80
2017-11-20T09:14:13.380Z,4.90
2017-11-20T09:16:41.544Z,4.90
2017-11-20T09:19:09.788Z,4.90
2017-11-20T09:21:37.921Z,5.00
2017-11-20T09:24:06.065Z,5.10
2017-11-20T09:26:34.211Z,5.00
2017-11-20T09:29:03.107Z,5.00
2017-11-20T09:31:32.027Z,5.10
2017-11-20T09:34:00.174Z,5.10
2017-11-20T09:36:29.074Z,5.10
2017-11-20T09:38:57.232Z,5.10
2017-11-20T09:41:26.154Z,5.10
2017-11-20T09:43:54.294Z,5.10
2017-11-20T09:46:22.425Z,5.20
2017-11-20T09:48:50.557Z,5.10
2017-11-20T09:51:19.476Z,5.20
2017-11-20T09:53:47.644Z,5.20
2017-11-20T09:56:15.840Z,5.30
2017-11-20T09:58:45.505Z,5.20
2017-11-20T10:01:13.731Z,5.20
2017-11-20T10:03:42.763Z,5.20
2017-11-20T10:06:11.709Z,5.20
2017-11-20T10:08:39.832Z,5.20
2017-11-20T10:11:07.987Z,5.30
2017-11-20T10:13:36.949Z,5.20
2017-11-20T10:16:05.090Z,5.20
2017-11-20T10:18:33.225Z,5.20
2017-11-20T10:21:02.155Z,5.20
2017-11-20T10:23:30.344Z,5.20
2017-11-20T10:25:58.609Z,5.20
2017-11-20T10:28:26.746Z,5.30
2017-11-20T10:30:54.914Z,5.30
2017-11-20T10:33:23.813Z,5.30
2017-11-20T10:35:51.950Z,5.30
2017-11-20T10:38:20.085Z,5.30
2017-11-20T10:40:48.235Z,5.30
2017-11-20T10:43:16.425Z,5.30
2017-11-20T10:45:44.576Z,5.30
2017-11-20T10:48:12.718Z,5.30
2017-11-20T10:50:40.836Z,5.40
2017-11-20T10:53:09.752Z,5.40
2017-11-20T10:55:37.885Z,5.40
2017-11-20T10:58:06.797Z,5.50
2017-11-20T11:00:34.942Z,5.50
2017-11-20T11:03:03.921Z,5.60
2017-11-20T11:05:32.113Z,5.60
2017-11-20T11:08:01.009Z,5.60
2017-11-20T11:10:29.207Z,5.60
2017-11-20T11:12:57.341Z,5.60
2017-11-20T11:15:26.258Z,5.80
2017-11-20T11:17:54.373Z,5.80
2017-11-20T11:20:22.516Z,5.80
2017-11-20T11:22:50.655Z,5.80
2017-11-20T11:25:19.567Z,5.80
2017-11-20T11:27:47.684Z,5.80
2017-11-20T11:30:15.841Z,5.90
2017-11-20T11:32:43.974Z,5.90
2017-11-20T11:35:12.114Z,6.00
2017-11-20T11:37:40.269Z,6.00
2017-11-20T11:40:08.398Z,5.90
2017-11-20T11:42:36.573Z,5.80
2017-11-20T11:45:04.691Z,5.90
2017-11-20T11:47:32.812Z,5.80
2017-11-20T11:50:00.951Z,5.70
2017-11-20T11:52:29.848Z,5.90
2017-11-20T11:54:58.759Z,5.90
2017-11-20T11:57:26.909Z,5.90
2017-11-20T11:59:55.828Z,5.80
2017-11-20T12:02:23.958Z,5.80
2017-11-20T12:04:52.857Z,6.00
2017-11-20T12:07:21.746Z,6.00
2017-11-20T12:09:51.137Z,6.00
2017-11-20T12:12:20.057Z,5.90
2017-11-20T12:14:48.968Z,6.10
2017-11-20T12:17:17.089Z,5.80
2017-11-20T12:19:46.003Z,5.90
2017-11-20T12:22:14.901Z,5.90
2017-11-20T12:24:43.962Z,5.90
2017-11-20T12:27:13.596Z,5.90
2017-11-20T12:29:41.741Z,5.90
2017-11-20T12:32:09.963Z,6.00
2017-11-20T12:34:38.087Z,6.00
2017-11-20T12:37:06.237Z,6.00
2017-11-20T12:39:34.392Z,6.10
2017-11-20T12:42:02.575Z,6.10
2017-11-20T12:44:30.700Z,6.10
2017-11-20T12:46:59.602Z,6.00
2017-11-20T12:49:27.779Z,6.00
2017-11-20T12:51:55.924Z,6.00
2017-11-20T12:54:24.809Z,6.20
2017-11-20T12:56:52.950Z,6.20
2017-11-20T12:59:21.570Z,6.20
2017-11-20T13:01:50.501Z,6.10
2017-11-20T13:04:18.625Z,6.10
2017-11-20T13:06:46.756Z,6.20
2017-11-20T13:09:15.664Z,6.20
2017-11-20T13:11:43.821Z,6.20
2017-11-20T13:14:11.938Z,6.30
2017-11-20T13:16:40.822Z,6.30
2017-11-20T13:19:09.750Z,6.30
2017-11-20T13:21:37.898Z,6.30
2017-11-20T13:24:06.850Z,6.30
2017-11-20T13:26:34.982Z,6.30
2017-11-20T13:29:03.897Z,6.40
2017-11-20T13:31:32.031Z,6.40
2017-11-20T13:34:00.946Z,6.30
2017-11-20T13:36:29.102Z,6.30
2017-11-20T13:38:57.296Z,6.30
2017-11-20T13:41:25.459Z,6.30
2017-11-20T13:43:53.616Z,6.30
2017-11-20T13:46:21.765Z,6.20
2017-11-20T13:48:49.913Z,6.30
2017-11-20T13:51:18.057Z,6.30
2017-11-20T13:53:46.213Z,6.20
2017-11-20T13:56:14.354Z,6.30
2017-11-20T13:58:42.541Z,6.30
2017-11-20T14:01:11.443Z,6.10
2017-11-20T14:03:40.353Z,6.10
2017-11-20T14:06:20.114Z,6.10
2017-11-20T14:08:48.268Z,6.00
2017-11-20T14:11:16.383Z,6.00
2017-11-20T14:13:44.518Z,6.10
2017-11-20T14:16:12.656Z,6.20
2017-11-20T14:18:41.561Z,6.20
2017-11-20T14:21:09.682Z,6.20
2017-11-20T14:23:37.832Z,6.20
2017-11-20T14:26:06.848Z,6.20
2017-11-20T14:28:34.969Z,6.20
2017-11-20T14:31:03.116Z,6.20
2017-11-20T14:33:32.103Z,6.20
2017-11-20T14:36:00.336Z,6.20
2017-11-20T14:38:28.481Z,6.10
2017-11-20T14:40:56.634Z,6.10
2017-11-20T14:43:25.530Z,5.90
2017-11-20T14:45:54.492Z,5.90
2017-11-20T14:48:23.346Z,5.90
2017-11-20T14:50:52.202Z,6.00
2017-11-20T14:53:24.866Z,6.00
2017-11-20T14:55:53.028Z,6.00
2017-11-20T14:58:21.149Z,6.10
2017-11-20T15:00:49.299Z,6.10
2017-11-20T15:03:18.224Z,6.00
2017-11-20T15:05:46.360Z,6.00
2017-11-20T15:08:15.258Z,5.90
2017-11-20T15:10:44.189Z,6.00
2017-11-20T15:13:12.331Z,6.00
2017-11-20T15:15:40.476Z,5.90
2017-11-20T15:18:08.615Z,5.80
2017-11-20T15:20:36.760Z,5.80
2017-11-20T15:23:04.932Z,5.80
2017-11-20T15:25:33.055Z,5.70
2017-11-20T15:28:01.216Z,5.70
2017-11-20T15:30:29.364Z,5.60
2017-11-20T15:32:57.536Z,5.60
2017-11-20T15:35:25.659Z,5.60
2017-11-20T15:37:54.571Z,5.60
2017-11-20T15:40:22.707Z,5.60
2017-11-20T15:42:51.676Z,5.50
2017-11-20T15:45:19.909Z,5.50
2017-11-20T15:47:53.614Z,5.40
2017-11-20T15:50:23.393Z,5.40
2017-11-20T15:52:52.549Z,5.40
2017-11-20T15:55:21.677Z,5.50
2017-11-20T15:57:49.842Z,5.50
2017-11-20T16:00:18.018Z,5.50
2017-11-20T16:02:47.659Z,5.50
2017-11-20T16:05:15.805Z,5.50
2017-11-20T16:07:44.729Z,5.40
2017-11-20T16:10:13.677Z,5.40
2017-11-20T16:12:41.835Z,5.40
2017-11-20T16:15:09.992Z,5.30
2017-11-20T16:17:38.248Z,5.30
2017-11-20T16:20:06.376Z,5.30
2017-11-20T16:22:35.311Z,5.50
2017-11-20T16:25:03.441Z,5.50
2017-11-20T16:27:32.404Z,5.40
2017-11-20T16:30:00.560Z,5.40
2017-11-20T16:32:28.713Z,5.50
2017-11-20T16:34:57.620Z,5.50
2017-11-20T16:37:25.757Z,5.50
2017-11-20T16:39:54.652Z,5.60
2017-11-20T16:42:22.820Z,5.60
2017-11-20T16:44:51.742Z,5.60
2017-11-20T16:47:19.886Z,5.60
2017-11-20T16:49:48.800Z,5.60
2017-11-20T16:52:16.948Z,5.60
2017-11-20T16:54:45.862Z,5.60
2017-11-20T16:57:25.923Z,5.60
2017-11-20T16:59:54.082Z,5.60
2017-11-20T17:02:34.205Z,5.70
2017-11-20T17:05:03.111Z,5.90
2017-11-20T17:07:31.265Z,5.80
2017-11-20T17:10:00.204Z,5.80
2017-11-20T17:12:28.340Z,5.80
2017-11-20T17:14:57.276Z,5.80
2017-11-20T17:17:25.425Z,5.80
2017-11-20T17:19:53.558Z,5.80
2017-11-20T17:22:22.461Z,5.70
2017-11-20T17:24:51.401Z,5.70
2017-11-20T17:27:19.554Z,5.70
2017-11-20T17:29:47.742Z,5.70
2017-11-20T17:32:15.890Z,5.80
2017-11-20T17:34:44.014Z,5.70
2017-11-20T17:37:12.190Z,5.70
2017-11-20T17:39:40.331Z,5.70
2017-11-20T17:42:08.483Z,5.70
2017-11-20T17:44:36.646Z,5.70
2017-11-20T17:47:04.782Z,5.80
2017-11-20T17:49:32.952Z,5.80
2017-11-20T17:52:01.146Z,5.80
2017-11-20T17:54:29.318Z,5.80
2017-11-20T17:56:57.506Z,5.80
2017-11-20T17:59:26.485Z,5.80
2017-11-20T18:01:55.395Z,5.80
2017-11-20T18:04:23.569Z,5.70
2017-11-20T18:06:51.720Z,5.80
2017-11-20T18:09:20.668Z,5.70
2017-11-20T18:11:48.830Z,5.70
2017-11-20T18:14:16.966Z,5.70
2017-11-20T18:16:45.900Z,5.70
2017-11-20T18:19:14.052Z,5.70
2017-11-20T18:21:42.262Z,5.70
2017-11-20T18:24:10.391Z,5.70
2017-11-20T18:26:39.108Z,5.70
2017-11-20T18:29:07.327Z,5.70
2017-11-20T18:31:36.244Z,5.60
2017-11-20T18:34:04.431Z,5.60
2017-11-20T18:36:32.566Z,5.70
2017-11-20T18:39:01.518Z,5.70
2017-11-20T18:41:29.778Z,5.70
2017-11-20T18:43:57.950Z,5.80
2017-11-20T18:46:26.196Z,5.70
2017-11-20T18:48:54.373Z,5.80
2017-11-20T18:51:22.836Z,5.80
2017-11-20T18:53:51.773Z,5.80
2017-11-20T18:56:19.933Z,5.80
2017-11-20T18:58:48.087Z,5.80
2017-11-20T19:01:28.100Z,5.80
2017-11-20T19:04:08.891Z,5.80
2017-11-20T19:06:49.908Z,5.80
2017-11-20T19:09:20.788Z,5.80
2017-11-20T19:11:49.733Z,5.90
2017-11-20T19:14:17.891Z,5.90
2017-11-20T19:16:46.073Z,5.80
2017-11-20T19:19:14.311Z,5.90
2017-11-20T19:21:43.275Z,6.00
2017-11-20T19:24:11.464Z,6.00
2017-11-20T19:26:39.629Z,6.00
2017-11-20T19:29:07.846Z,6.00
2017-11-20T19:31:36.021Z,6.10
2017-11-20T19:34:04.230Z,6.20
2017-11-20T19:36:32.468Z,6.10
2017-11-20T19:39:00.867Z,6.10
2017-11-20T19:41:29.176Z,6.20
2017-11-20T19:43:57.537Z,6.20
2017-11-20T19:46:27.433Z,6.20
2017-11-20T19:48:56.597Z,6.20
2017-11-20T19:51:25.112Z,6.20
2017-11-20T19:53:53.496Z,6.30
2017-11-20T19:56:22.061Z,6.30
2017-11-20T19:58:50.509Z,6.40
2017-11-20T20:01:18.900Z,6.40
2017-11-20T20:03:47.292Z,6.40
2017-11-20T20:06:15.810Z,6.30
2017-11-20T20:08:44.136Z,6.30
2017-11-20T20:11:12.491Z,6.30
2017-11-20T20:13:46.770Z,6.40
2017-11-20T20:16:20.667Z,6.40
2017-11-20T20:18:49.038Z,6.40
2017-11-20T20:21:17.356Z,6.40
2017-11-20T20:23:46.487Z,6.50
2017-11-20T20:26:14.796Z,6.40
2017-11-20T20:28:43.024Z,6.40
2017-11-20T20:31:11.933Z,6.30
2017-11-20T20:33:40.082Z,6.30
2017-11-20T20:36:08.986Z,6.40
2017-11-20T20:38:37.152Z,6.40
2017-11-20T20:41:06.039Z,6.70
2017-11-20T20:43:34.990Z,6.60
2017-11-20T20:46:03.136Z,6.60
2017-11-20T20:48:31.276Z,6.60
2017-11-20T20:51:00.203Z,6.60
2017-11-20T20:53:28.356Z,6.60
2017-11-20T20:55:56.517Z,6.60
2017-11-20T20:58:25.416Z,6.60
2017-11-20T21:00:53.602Z,6.60
2017-11-20T21:03:21.732Z,6.50
2017-11-20T21:05:50.694Z,6.70
2017-11-20T21:08:18.826Z,6.60
2017-11-20T21:10:52.562Z,6.70
2017-11-20T21:13:20.740Z,6.80
2017-11-20T21:15:48.868Z,6.70
2017-11-20T21:18:17.030Z,6.70
2017-11-20T21:20:45.979Z,6.70
2017-11-20T21:23:14.127Z,6.70
2017-11-20T21:25:43.042Z,6.80
2017-11-20T21:28:11.198Z,6.80
2017-11-20T21:30:39.354Z,6.70
2017-11-20T21:33:07.515Z,6.70
2017-11-20T21:35:35.696Z,6.70
2017-11-20T21:38:03.890Z,6.70
2017-11-20T21:40:32.792Z,6.60
2017-11-20T21:43:00.967Z,6.60
2017-11-20T21:45:29.097Z,6.60
2017-11-20T21:47:57.245Z,6.60
2017-11-20T21:50:26.170Z,6.50
2017-11-20T21:52:54.321Z,6.50
2017-11-20T21:55:22.456Z,6.50
2017-11-20T21:57:50.708Z,6.50
2017-11-20T22:00:18.841Z,6.50
2017-11-20T22:02:47.755Z,6.40
2017-11-20T22:05:15.892Z,6.40
2017-11-20T22:07:44.808Z,6.40
2017-11-20T22:10:12.947Z,6.30
2017-11-20T22:15:39.009Z,6.30
2017-11-20T22:18:07.926Z,6.40
2017-11-20T22:20:36.049Z,6.40
2017-11-20T22:23:04.972Z,6.40
2017-11-20T22:25:33.873Z,6.40
2017-11-20T22:28:02.010Z,6.40
2017-11-20T22:30:30.145Z,6.50
2017-11-20T22:32:58.282Z,6.50
2017-11-20T22:35:26.425Z,6.50
2017-11-20T22:37:55.320Z,6.50
2017-11-20T22:40:24.230Z,6.60
2017-11-20T22:42:52.357Z,6.50
2017-11-20T22:45:20.494Z,6.60
2017-11-20T22:47:48.623Z,6.60
2017-11-20T22:50:17.512Z,6.60
2017-11-20T22:52:46.410Z,6.60
2017-11-20T22:55:15.326Z,6.60
2017-11-20T22:57:43.479Z,6.60
2017-11-20T23:00:12.454Z,6.60
2017-11-20T23:02:41.343Z,6.50
2017-11-20T23:05:09.491Z,6.50
2017-11-20T23:07:37.626Z,6.50
2017-11-20T23:10:05.767Z,6.50
2017-11-20T23:12:34.677Z,6.60
2017-11-20T23:15:03.589Z,6.50
2017-11-20T23:17:31.732Z,6.50
2017-11-20T23:19:59.853Z,6.50
2017-11-20T23:22:28.020Z,6.50
2017-11-20T23:24:56.188Z,6.50
2017-11-20T23:27:24.316Z,6.50
2017-11-20T23:29:53.215Z,6.50
2017-11-20T23:32:22.117Z,6.40
2017-11-20T23:34:50.241Z,6.40
2017-11-20T23:37:18.385Z,6.50
2017-11-20T23:39:46.530Z,6.50
2017-11-20T23:42:14.695Z,6.60
2017-11-20T23:44:42.837Z,6.50
2017-11-20T23:47:11.746Z,6.60
2017-11-20T23:49:40.668Z,6.50
2017-11-20T23:52:09.558Z,6.60
2017-11-20T23:54:38.593Z,6.50
2017-11-20T23:57:06.730Z,6.60
2017-11-20T23:59:34.870Z,6.60
